sensor_id;sensor_type;location;lat;lon;timestamp;P1;durP1;ratioP1;P2;durP2;ratioP2
9270;SDS011;4673;53.458;9.940;2024-02-21T00:00:46;16.87;;;16.70;;
9270;SDS011;4673;53.458;9.940;2024-02-21T00:03:11;16.13;;;15.97;;
9270;SDS011;4673;53.458;9.940;2024-02-21T00:05:37;15.63;;;15.43;;
9270;SDS011;4673;53.458;9.940;2024-02-21T00:08:03;15.67;;;15.57;;
9270;SDS011;4673;53.458;9.940;2024-02-21T00:10:29;17.27;;;17.07;;
9270;SDS011;4673;53.458;9.940;2024-02-21T00:12:56;16.57;;;16.37;;
9270;SDS011;4673;53.458;9.940;2024-02-21T00:15:22;16.57;;;16.47;;
9270;SDS011;4673;53.458;9.940;2024-02-21T00:17:48;16.23;;;16.13;;
9270;SDS011;4673;53.458;9.940;2024-02-21T00:20:14;16.87;;;16.77;;
9270;SDS011;4673;53.458;9.940;2024-02-21T00:22:39;17.17;;;17.03;;
9270;SDS011;4673;53.458;9.940;2024-02-21T00:25:05;16.33;;;16.20;;
9270;SDS011;4673;53.458;9.940;2024-02-21T00:27:31;17.60;;;17.40;;
9270;SDS011;4673;53.458;9.940;2024-02-21T00:29:57;16.67;;;16.57;;
9270;SDS011;4673;53.458;9.940;2024-02-21T00:32:23;17.60;;;17.50;;
9270;SDS011;4673;53.458;9.940;2024-02-21T00:34:48;18.10;;;17.90;;
9270;SDS011;4673;53.458;9.940;2024-02-21T00:37:14;18.57;;;18.37;;
9270;SDS011;4673;53.458;9.940;2024-02-21T00:39:40;18.67;;;18.57;;
9270;SDS011;4673;53.458;9.940;2024-02-21T00:42:07;19.30;;;19.10;;
9270;SDS011;4673;53.458;9.940;2024-02-21T00:44:33;19.70;;;19.60;;
9270;SDS011;4673;53.458;9.940;2024-02-21T00:46:58;19.43;;;19.23;;
9270;SDS011;4673;53.458;9.940;2024-02-21T00:49:24;17.97;;;17.80;;
9270;SDS011;4673;53.458;9.940;2024-02-21T00:51:50;17.07;;;16.97;;
9270;SDS011;4673;53.458;9.940;2024-02-21T00:54:15;19.30;;;19.20;;
9270;SDS011;4673;53.458;9.940;2024-02-21T00:56:41;17.57;;;17.37;;
9270;SDS011;4673;53.458;9.940;2024-02-21T00:59:08;17.93;;;17.83;;
9270;SDS011;4673;53.458;9.940;2024-02-21T01:01:33;21.33;;;21.13;;
9270;SDS011;4673;53.458;9.940;2024-02-21T01:03:59;21.23;;;21.03;;
9270;SDS011;4673;53.458;9.940;2024-02-21T01:06:25;20.33;;;20.13;;
9270;SDS011;4673;53.458;9.940;2024-02-21T01:08:51;20.33;;;20.13;;
9270;SDS011;4673;53.458;9.940;2024-02-21T01:11:17;21.67;;;21.47;;
9270;SDS011;4673;53.458;9.940;2024-02-21T01:13:43;18.53;;;18.43;;
9270;SDS011;4673;53.458;9.940;2024-02-21T01:16:09;17.80;;;17.60;;
9270;SDS011;4673;53.458;9.940;2024-02-21T01:18:36;19.53;;;19.33;;
9270;SDS011;4673;53.458;9.940;2024-02-21T01:21:02;20.67;;;20.47;;
9270;SDS011;4673;53.458;9.940;2024-02-21T01:23:31;19.77;;;19.63;;
9270;SDS011;4673;53.458;9.940;2024-02-21T01:26:00;20.67;;;20.53;;
9270;SDS011;4673;53.458;9.940;2024-02-21T01:28:26;18.63;;;18.43;;
9270;SDS011;4673;53.458;9.940;2024-02-21T01:30:52;19.20;;;19.00;;
9270;SDS011;4673;53.458;9.940;2024-02-21T01:33:17;20.67;;;20.47;;
9270;SDS011;4673;53.458;9.940;2024-02-21T01:35:44;17.90;;;17.80;;
9270;SDS011;4673;53.458;9.940;2024-02-21T01:38:09;18.40;;;18.30;;
9270;SDS011;4673;53.458;9.940;2024-02-21T01:40:35;19.80;;;19.60;;
9270;SDS011;4673;53.458;9.940;2024-02-21T01:43:02;21.17;;;20.97;;
9270;SDS011;4673;53.458;9.940;2024-02-21T01:45:28;19.40;;;19.30;;
9270;SDS011;4673;53.458;9.940;2024-02-21T01:47:53;19.37;;;19.17;;
9270;SDS011;4673;53.458;9.940;2024-02-21T01:50:19;19.07;;;18.97;;
9270;SDS011;4673;53.458;9.940;2024-02-21T01:52:47;19.80;;;19.60;;
9270;SDS011;4673;53.458;9.940;2024-02-21T01:55:15;21.20;;;21.00;;
9270;SDS011;4673;53.458;9.940;2024-02-21T01:57:42;18.33;;;18.17;;
9270;SDS011;4673;53.458;9.940;2024-02-21T02:00:10;19.07;;;18.87;;
9270;SDS011;4673;53.458;9.940;2024-02-21T02:02:38;20.27;;;20.07;;
9270;SDS011;4673;53.458;9.940;2024-02-21T02:05:04;18.73;;;18.63;;
9270;SDS011;4673;53.458;9.940;2024-02-21T02:07:34;21.50;;;21.30;;
9270;SDS011;4673;53.458;9.940;2024-02-21T02:09:59;20.53;;;20.33;;
9270;SDS011;4673;53.458;9.940;2024-02-21T02:12:25;19.50;;;19.40;;
9270;SDS011;4673;53.458;9.940;2024-02-21T02:14:58;21.77;;;21.57;;
9270;SDS011;4673;53.458;9.940;2024-02-21T02:17:29;21.70;;;21.60;;
9270;SDS011;4673;53.458;9.940;2024-02-21T02:19:55;22.50;;;22.30;;
9270;SDS011;4673;53.458;9.940;2024-02-21T02:22:22;21.67;;;21.47;;
9270;SDS011;4673;53.458;9.940;2024-02-21T02:24:53;22.60;;;22.40;;
9270;SDS011;4673;53.458;9.940;2024-02-21T02:27:18;27.50;;;27.30;;
9270;SDS011;4673;53.458;9.940;2024-02-21T02:29:44;25.30;;;25.10;;
9270;SDS011;4673;53.458;9.940;2024-02-21T02:32:10;23.67;;;23.47;;
9270;SDS011;4673;53.458;9.940;2024-02-21T02:34:36;23.20;;;23.00;;
9270;SDS011;4673;53.458;9.940;2024-02-21T02:37:02;23.93;;;23.73;;
9270;SDS011;4673;53.458;9.940;2024-02-21T02:39:27;23.90;;;23.70;;
9270;SDS011;4673;53.458;9.940;2024-02-21T02:41:53;26.83;;;26.53;;
9270;SDS011;4673;53.458;9.940;2024-02-21T02:44:18;26.47;;;26.27;;
9270;SDS011;4673;53.458;9.940;2024-02-21T02:46:44;30.03;;;29.73;;
9270;SDS011;4673;53.458;9.940;2024-02-21T02:49:10;29.07;;;28.77;;
9270;SDS011;4673;53.458;9.940;2024-02-21T02:51:35;27.73;;;27.43;;
9270;SDS011;4673;53.458;9.940;2024-02-21T02:54:02;30.23;;;29.93;;
9270;SDS011;4673;53.458;9.940;2024-02-21T02:56:28;27.63;;;27.33;;
9270;SDS011;4673;53.458;9.940;2024-02-21T02:58:53;28.63;;;28.33;;
9270;SDS011;4673;53.458;9.940;2024-02-21T03:01:19;29.17;;;28.87;;
9270;SDS011;4673;53.458;9.940;2024-02-21T03:03:44;28.87;;;28.57;;
9270;SDS011;4673;53.458;9.940;2024-02-21T03:06:12;29.17;;;28.90;;
9270;SDS011;4673;53.458;9.940;2024-02-21T03:08:37;31.00;;;30.73;;
9270;SDS011;4673;53.458;9.940;2024-02-21T03:11:04;28.77;;;28.47;;
9270;SDS011;4673;53.458;9.940;2024-02-21T03:13:30;25.77;;;25.57;;
9270;SDS011;4673;53.458;9.940;2024-02-21T03:15:56;26.30;;;26.10;;
9270;SDS011;4673;53.458;9.940;2024-02-21T03:18:21;27.23;;;26.93;;
9270;SDS011;4673;53.458;9.940;2024-02-21T03:20:47;26.90;;;26.63;;
9270;SDS011;4673;53.458;9.940;2024-02-21T03:23:13;26.93;;;26.67;;
9270;SDS011;4673;53.458;9.940;2024-02-21T03:25:38;23.70;;;23.50;;
9270;SDS011;4673;53.458;9.940;2024-02-21T03:28:04;23.73;;;23.53;;
9270;SDS011;4673;53.458;9.940;2024-02-21T03:30:30;22.00;;;21.80;;
9270;SDS011;4673;53.458;9.940;2024-02-21T03:32:55;23.67;;;23.47;;
9270;SDS011;4673;53.458;9.940;2024-02-21T03:35:21;21.03;;;20.83;;
9270;SDS011;4673;53.458;9.940;2024-02-21T03:37:47;22.20;;;21.97;;
9270;SDS011;4673;53.458;9.940;2024-02-21T03:40:12;20.20;;;20.00;;
9270;SDS011;4673;53.458;9.940;2024-02-21T03:42:38;19.90;;;19.70;;
9270;SDS011;4673;53.458;9.940;2024-02-21T03:45:04;21.87;;;21.67;;
9270;SDS011;4673;53.458;9.940;2024-02-21T03:47:30;20.03;;;19.83;;
9270;SDS011;4673;53.458;9.940;2024-02-21T03:49:55;20.80;;;20.60;;
9270;SDS011;4673;53.458;9.940;2024-02-21T03:52:21;22.50;;;22.30;;
9270;SDS011;4673;53.458;9.940;2024-02-21T03:54:47;19.70;;;19.50;;
9270;SDS011;4673;53.458;9.940;2024-02-21T03:57:13;22.93;;;22.73;;
9270;SDS011;4673;53.458;9.940;2024-02-21T03:59:38;21.13;;;20.93;;
9270;SDS011;4673;53.458;9.940;2024-02-21T04:02:07;19.60;;;19.43;;
9270;SDS011;4673;53.458;9.940;2024-02-21T04:04:34;19.90;;;19.70;;
9270;SDS011;4673;53.458;9.940;2024-02-21T04:07:02;20.00;;;19.80;;
9270;SDS011;4673;53.458;9.940;2024-02-21T04:09:31;20.07;;;19.87;;
9270;SDS011;4673;53.458;9.940;2024-02-21T04:11:58;20.37;;;20.17;;
9270;SDS011;4673;53.458;9.940;2024-02-21T04:14:24;19.50;;;19.30;;
9270;SDS011;4673;53.458;9.940;2024-02-21T04:16:50;21.10;;;20.90;;
9270;SDS011;4673;53.458;9.940;2024-02-21T04:19:16;19.40;;;19.20;;
9270;SDS011;4673;53.458;9.940;2024-02-21T04:21:41;20.83;;;20.63;;
9270;SDS011;4673;53.458;9.940;2024-02-21T04:24:07;20.00;;;19.80;;
9270;SDS011;4673;53.458;9.940;2024-02-21T04:26:33;19.97;;;19.87;;
9270;SDS011;4673;53.458;9.940;2024-02-21T04:28:59;20.03;;;19.93;;
9270;SDS011;4673;53.458;9.940;2024-02-21T04:31:24;18.93;;;18.80;;
9270;SDS011;4673;53.458;9.940;2024-02-21T04:33:50;22.33;;;22.13;;
9270;SDS011;4673;53.458;9.940;2024-02-21T04:36:15;20.30;;;20.10;;
9270;SDS011;4673;53.458;9.940;2024-02-21T04:38:41;21.97;;;21.77;;
9270;SDS011;4673;53.458;9.940;2024-02-21T04:41:07;21.47;;;21.33;;
9270;SDS011;4673;53.458;9.940;2024-02-21T04:43:33;20.43;;;20.33;;
9270;SDS011;4673;53.458;9.940;2024-02-21T04:45:58;20.23;;;20.13;;
9270;SDS011;4673;53.458;9.940;2024-02-21T04:48:25;20.90;;;20.80;;
9270;SDS011;4673;53.458;9.940;2024-02-21T04:50:51;20.57;;;20.37;;
9270;SDS011;4673;53.458;9.940;2024-02-21T04:53:16;19.30;;;19.20;;
9270;SDS011;4673;53.458;9.940;2024-02-21T04:55:42;18.93;;;18.83;;
9270;SDS011;4673;53.458;9.940;2024-02-21T04:58:08;20.67;;;20.57;;
9270;SDS011;4673;53.458;9.940;2024-02-21T05:00:34;18.87;;;18.77;;
9270;SDS011;4673;53.458;9.940;2024-02-21T05:02:59;18.60;;;18.50;;
9270;SDS011;4673;53.458;9.940;2024-02-21T05:05:25;20.17;;;20.00;;
9270;SDS011;4673;53.458;9.940;2024-02-21T05:07:50;17.40;;;17.30;;
9270;SDS011;4673;53.458;9.940;2024-02-21T05:10:16;18.20;;;18.10;;
9270;SDS011;4673;53.458;9.940;2024-02-21T05:12:43;17.17;;;17.07;;
9270;SDS011;4673;53.458;9.940;2024-02-21T05:15:08;17.93;;;17.83;;
9270;SDS011;4673;53.458;9.940;2024-02-21T05:17:35;16.87;;;16.77;;
9270;SDS011;4673;53.458;9.940;2024-02-21T05:20:00;14.93;;;14.83;;
9270;SDS011;4673;53.458;9.940;2024-02-21T05:22:26;15.93;;;15.83;;
9270;SDS011;4673;53.458;9.940;2024-02-21T05:24:52;15.47;;;15.37;;
9270;SDS011;4673;53.458;9.940;2024-02-21T05:27:17;15.80;;;15.70;;
9270;SDS011;4673;53.458;9.940;2024-02-21T05:29:43;14.53;;;14.43;;
9270;SDS011;4673;53.458;9.940;2024-02-21T05:32:09;14.77;;;14.67;;
9270;SDS011;4673;53.458;9.940;2024-02-21T05:34:35;13.50;;;13.40;;
9270;SDS011;4673;53.458;9.940;2024-02-21T05:37:00;12.67;;;12.67;;
9270;SDS011;4673;53.458;9.940;2024-02-21T05:39:26;13.73;;;13.63;;
9270;SDS011;4673;53.458;9.940;2024-02-21T05:41:54;13.00;;;12.90;;
9270;SDS011;4673;53.458;9.940;2024-02-21T05:44:19;14.00;;;13.90;;
9270;SDS011;4673;53.458;9.940;2024-02-21T05:46:47;13.43;;;13.33;;
9270;SDS011;4673;53.458;9.940;2024-02-21T05:49:12;12.27;;;12.27;;
9270;SDS011;4673;53.458;9.940;2024-02-21T05:51:38;12.50;;;12.40;;
9270;SDS011;4673;53.458;9.940;2024-02-21T05:54:04;12.03;;;11.93;;
9270;SDS011;4673;53.458;9.940;2024-02-21T05:56:29;11.83;;;11.83;;
9270;SDS011;4673;53.458;9.940;2024-02-21T05:58:55;13.33;;;13.23;;
9270;SDS011;4673;53.458;9.940;2024-02-21T06:01:21;11.50;;;11.40;;
9270;SDS011;4673;53.458;9.940;2024-02-21T06:03:47;11.60;;;11.57;;
9270;SDS011;4673;53.458;9.940;2024-02-21T06:06:13;11.77;;;11.77;;
9270;SDS011;4673;53.458;9.940;2024-02-21T06:08:41;11.80;;;11.70;;
9270;SDS011;4673;53.458;9.940;2024-02-21T06:11:07;11.40;;;11.40;;
9270;SDS011;4673;53.458;9.940;2024-02-21T06:13:33;12.20;;;12.10;;
9270;SDS011;4673;53.458;9.940;2024-02-21T06:16:02;10.57;;;10.57;;
9270;SDS011;4673;53.458;9.940;2024-02-21T06:18:29;10.87;;;10.77;;
9270;SDS011;4673;53.458;9.940;2024-02-21T06:20:55;11.03;;;10.93;;
9270;SDS011;4673;53.458;9.940;2024-02-21T06:23:20;10.70;;;10.70;;
9270;SDS011;4673;53.458;9.940;2024-02-21T06:25:46;11.23;;;11.23;;
9270;SDS011;4673;53.458;9.940;2024-02-21T06:28:12;9.53;;;9.53;;
9270;SDS011;4673;53.458;9.940;2024-02-21T06:30:39;10.33;;;10.33;;
9270;SDS011;4673;53.458;9.940;2024-02-21T06:33:05;10.83;;;10.83;;
9270;SDS011;4673;53.458;9.940;2024-02-21T06:35:32;9.20;;;9.20;;
9270;SDS011;4673;53.458;9.940;2024-02-21T06:37:58;9.60;;;9.60;;
9270;SDS011;4673;53.458;9.940;2024-02-21T06:40:24;9.90;;;9.90;;
9270;SDS011;4673;53.458;9.940;2024-02-21T06:42:50;9.90;;;9.90;;
9270;SDS011;4673;53.458;9.940;2024-02-21T06:45:16;9.73;;;9.73;;
9270;SDS011;4673;53.458;9.940;2024-02-21T06:47:42;11.57;;;11.57;;
9270;SDS011;4673;53.458;9.940;2024-02-21T06:50:08;10.43;;;10.43;;
9270;SDS011;4673;53.458;9.940;2024-02-21T06:52:34;10.00;;;10.00;;
9270;SDS011;4673;53.458;9.940;2024-02-21T06:55:03;9.03;;;9.03;;
9270;SDS011;4673;53.458;9.940;2024-02-21T06:57:29;11.57;;;11.57;;
9270;SDS011;4673;53.458;9.940;2024-02-21T06:59:55;10.43;;;10.43;;
9270;SDS011;4673;53.458;9.940;2024-02-21T07:02:20;9.93;;;9.93;;
9270;SDS011;4673;53.458;9.940;2024-02-21T07:04:46;9.70;;;9.70;;
9270;SDS011;4673;53.458;9.940;2024-02-21T07:07:12;10.77;;;10.77;;
9270;SDS011;4673;53.458;9.940;2024-02-21T07:09:38;11.23;;;11.20;;
9270;SDS011;4673;53.458;9.940;2024-02-21T07:12:03;10.50;;;10.50;;
9270;SDS011;4673;53.458;9.940;2024-02-21T07:14:29;10.40;;;10.40;;
9270;SDS011;4673;53.458;9.940;2024-02-21T07:16:57;10.97;;;10.97;;
9270;SDS011;4673;53.458;9.940;2024-02-21T07:19:22;11.93;;;11.93;;
9270;SDS011;4673;53.458;9.940;2024-02-21T07:21:48;10.00;;;10.00;;
9270;SDS011;4673;53.458;9.940;2024-02-21T07:24:14;9.20;;;9.20;;
9270;SDS011;4673;53.458;9.940;2024-02-21T07:26:42;9.87;;;9.87;;
9270;SDS011;4673;53.458;9.940;2024-02-21T07:29:08;9.50;;;9.50;;
9270;SDS011;4673;53.458;9.940;2024-02-21T07:31:43;8.70;;;8.70;;
9270;SDS011;4673;53.458;9.940;2024-02-21T07:34:09;8.70;;;8.70;;
9270;SDS011;4673;53.458;9.940;2024-02-21T07:36:36;8.70;;;8.70;;
9270;SDS011;4673;53.458;9.940;2024-02-21T07:39:04;7.50;;;7.50;;
9270;SDS011;4673;53.458;9.940;2024-02-21T07:41:30;7.30;;;7.30;;
9270;SDS011;4673;53.458;9.940;2024-02-21T07:43:56;7.60;;;7.60;;
9270;SDS011;4673;53.458;9.940;2024-02-21T07:46:22;6.63;;;6.63;;
9270;SDS011;4673;53.458;9.940;2024-02-21T07:48:48;6.20;;;6.20;;
9270;SDS011;4673;53.458;9.940;2024-02-21T07:51:14;6.03;;;6.03;;
9270;SDS011;4673;53.458;9.940;2024-02-21T07:53:42;5.63;;;5.63;;
9270;SDS011;4673;53.458;9.940;2024-02-21T07:56:13;6.13;;;6.13;;
9270;SDS011;4673;53.458;9.940;2024-02-21T07:58:40;5.97;;;5.97;;
9270;SDS011;4673;53.458;9.940;2024-02-21T08:01:06;5.53;;;5.53;;
9270;SDS011;4673;53.458;9.940;2024-02-21T08:03:33;5.67;;;5.67;;
9270;SDS011;4673;53.458;9.940;2024-02-21T08:05:58;5.20;;;5.20;;
9270;SDS011;4673;53.458;9.940;2024-02-21T08:08:24;6.10;;;6.10;;
9270;SDS011;4673;53.458;9.940;2024-02-21T08:10:50;5.03;;;5.03;;
9270;SDS011;4673;53.458;9.940;2024-02-21T08:13:15;6.20;;;6.20;;
9270;SDS011;4673;53.458;9.940;2024-02-21T08:15:41;5.17;;;5.17;;
9270;SDS011;4673;53.458;9.940;2024-02-21T08:18:07;5.30;;;5.30;;
9270;SDS011;4673;53.458;9.940;2024-02-21T08:20:33;5.13;;;5.13;;
9270;SDS011;4673;53.458;9.940;2024-02-21T08:22:59;5.57;;;5.57;;
9270;SDS011;4673;53.458;9.940;2024-02-21T08:25:24;6.37;;;6.37;;
9270;SDS011;4673;53.458;9.940;2024-02-21T08:27:50;5.10;;;5.10;;
9270;SDS011;4673;53.458;9.940;2024-02-21T08:30:17;5.67;;;5.67;;
9270;SDS011;4673;53.458;9.940;2024-02-21T08:32:43;6.00;;;6.00;;
9270;SDS011;4673;53.458;9.940;2024-02-21T08:35:08;5.37;;;5.37;;
9270;SDS011;4673;53.458;9.940;2024-02-21T08:37:34;5.23;;;5.23;;
9270;SDS011;4673;53.458;9.940;2024-02-21T08:40:00;5.27;;;5.27;;
9270;SDS011;4673;53.458;9.940;2024-02-21T08:42:33;6.67;;;6.67;;
9270;SDS011;4673;53.458;9.940;2024-02-21T08:45:03;6.03;;;6.03;;
9270;SDS011;4673;53.458;9.940;2024-02-21T08:47:29;6.80;;;6.80;;
9270;SDS011;4673;53.458;9.940;2024-02-21T08:49:55;6.63;;;6.63;;
9270;SDS011;4673;53.458;9.940;2024-02-21T08:52:20;7.00;;;7.00;;
9270;SDS011;4673;53.458;9.940;2024-02-21T08:54:46;7.30;;;7.30;;
9270;SDS011;4673;53.458;9.940;2024-02-21T08:57:12;6.90;;;6.90;;
9270;SDS011;4673;53.458;9.940;2024-02-21T08:59:39;6.93;;;6.93;;
9270;SDS011;4673;53.458;9.940;2024-02-21T09:02:05;6.60;;;6.60;;
9270;SDS011;4673;53.458;9.940;2024-02-21T09:04:32;5.77;;;5.77;;
9270;SDS011;4673;53.458;9.940;2024-02-21T09:06:58;6.67;;;6.67;;
9270;SDS011;4673;53.458;9.940;2024-02-21T09:09:24;5.83;;;5.83;;
9270;SDS011;4673;53.458;9.940;2024-02-21T09:11:49;5.50;;;5.50;;
9270;SDS011;4673;53.458;9.940;2024-02-21T09:14:15;5.23;;;5.23;;
9270;SDS011;4673;53.458;9.940;2024-02-21T09:16:41;4.60;;;4.60;;
9270;SDS011;4673;53.458;9.940;2024-02-21T09:19:06;4.80;;;4.80;;
9270;SDS011;4673;53.458;9.940;2024-02-21T09:21:35;4.20;;;4.20;;
9270;SDS011;4673;53.458;9.940;2024-02-21T09:24:02;4.20;;;4.20;;
9270;SDS011;4673;53.458;9.940;2024-02-21T09:26:27;4.03;;;4.03;;
9270;SDS011;4673;53.458;9.940;2024-02-21T09:28:53;4.50;;;4.50;;
9270;SDS011;4673;53.458;9.940;2024-02-21T09:31:19;4.73;;;4.73;;
9270;SDS011;4673;53.458;9.940;2024-02-21T09:33:45;5.20;;;5.20;;
9270;SDS011;4673;53.458;9.940;2024-02-21T09:36:10;6.20;;;6.20;;
9270;SDS011;4673;53.458;9.940;2024-02-21T09:38:36;6.83;;;6.83;;
9270;SDS011;4673;53.458;9.940;2024-02-21T09:41:14;5.57;;;5.57;;
9270;SDS011;4673;53.458;9.940;2024-02-21T09:43:44;6.70;;;6.70;;
9270;SDS011;4673;53.458;9.940;2024-02-21T09:46:17;7.10;;;7.10;;
9270;SDS011;4673;53.458;9.940;2024-02-21T09:51:40;7.37;;;7.37;;
9270;SDS011;4673;53.458;9.940;2024-02-21T09:54:08;7.70;;;7.70;;
9270;SDS011;4673;53.458;9.940;2024-02-21T09:56:34;8.93;;;8.93;;
9270;SDS011;4673;53.458;9.940;2024-02-21T09:59:00;9.07;;;9.07;;
9270;SDS011;4673;53.458;9.940;2024-02-21T10:01:29;8.77;;;8.77;;
9270;SDS011;4673;53.458;9.940;2024-02-21T10:03:56;9.67;;;9.67;;
9270;SDS011;4673;53.458;9.940;2024-02-21T10:06:22;10.20;;;10.20;;
9270;SDS011;4673;53.458;9.940;2024-02-21T10:08:52;10.57;;;10.57;;
9270;SDS011;4673;53.458;9.940;2024-02-21T10:11:22;11.63;;;11.53;;
9270;SDS011;4673;53.458;9.940;2024-02-21T10:13:48;12.13;;;12.03;;
9270;SDS011;4673;53.458;9.940;2024-02-21T10:16:14;11.90;;;11.80;;
9270;SDS011;4673;53.458;9.940;2024-02-21T10:18:40;15.60;;;15.50;;
9270;SDS011;4673;53.458;9.940;2024-02-21T10:21:07;14.80;;;14.70;;
9270;SDS011;4673;53.458;9.940;2024-02-21T10:23:42;15.37;;;15.27;;
9270;SDS011;4673;53.458;9.940;2024-02-21T10:26:13;13.87;;;13.77;;
9270;SDS011;4673;53.458;9.940;2024-02-21T10:28:40;14.97;;;14.87;;
9270;SDS011;4673;53.458;9.940;2024-02-21T10:31:10;15.03;;;14.93;;
9270;SDS011;4673;53.458;9.940;2024-02-21T10:33:37;16.10;;;16.00;;
9270;SDS011;4673;53.458;9.940;2024-02-21T10:36:06;16.70;;;16.60;;
9270;SDS011;4673;53.458;9.940;2024-02-21T10:38:36;15.70;;;15.60;;
9270;SDS011;4673;53.458;9.940;2024-02-21T10:41:05;15.63;;;15.53;;
9270;SDS011;4673;53.458;9.940;2024-02-21T10:43:38;14.90;;;14.80;;
9270;SDS011;4673;53.458;9.940;2024-02-21T10:46:07;14.90;;;14.80;;
9270;SDS011;4673;53.458;9.940;2024-02-21T10:48:46;13.57;;;13.47;;
9270;SDS011;4673;53.458;9.940;2024-02-21T10:51:19;14.27;;;14.17;;
9270;SDS011;4673;53.458;9.940;2024-02-21T10:59:02;12.70;;;12.60;;
9270;SDS011;4673;53.458;9.940;2024-02-21T11:01:29;13.80;;;13.70;;
9270;SDS011;4673;53.458;9.940;2024-02-21T11:03:57;13.83;;;13.73;;
9270;SDS011;4673;53.458;9.940;2024-02-21T11:06:25;14.17;;;14.07;;
9270;SDS011;4673;53.458;9.940;2024-02-21T11:09:06;13.83;;;13.73;;
9270;SDS011;4673;53.458;9.940;2024-02-21T11:11:43;12.57;;;12.47;;
9270;SDS011;4673;53.458;9.940;2024-02-21T11:14:09;11.73;;;11.63;;
9270;SDS011;4673;53.458;9.940;2024-02-21T11:16:37;11.93;;;11.83;;
9270;SDS011;4673;53.458;9.940;2024-02-21T11:19:08;10.37;;;10.37;;
9270;SDS011;4673;53.458;9.940;2024-02-21T11:21:46;11.77;;;11.67;;
9270;SDS011;4673;53.458;9.940;2024-02-21T11:24:28;10.17;;;10.07;;
9270;SDS011;4673;53.458;9.940;2024-02-21T11:27:15;10.50;;;10.40;;
9270;SDS011;4673;53.458;9.940;2024-02-21T11:29:44;11.23;;;11.13;;
9270;SDS011;4673;53.458;9.940;2024-02-21T11:32:11;11.80;;;11.70;;
9270;SDS011;4673;53.458;9.940;2024-02-21T11:34:41;9.77;;;9.70;;
9270;SDS011;4673;53.458;9.940;2024-02-21T11:37:17;9.90;;;9.90;;
9270;SDS011;4673;53.458;9.940;2024-02-21T11:39:43;9.93;;;9.93;;
9270;SDS011;4673;53.458;9.940;2024-02-21T11:42:08;10.63;;;10.53;;
9270;SDS011;4673;53.458;9.940;2024-02-21T11:44:35;9.97;;;9.90;;
9270;SDS011;4673;53.458;9.940;2024-02-21T11:47:03;11.67;;;11.57;;
9270;SDS011;4673;53.458;9.940;2024-02-21T11:49:29;10.63;;;10.53;;
9270;SDS011;4673;53.458;9.940;2024-02-21T11:51:59;11.00;;;10.90;;
9270;SDS011;4673;53.458;9.940;2024-02-21T11:54:26;9.90;;;9.90;;
9270;SDS011;4673;53.458;9.940;2024-02-21T11:56:52;9.93;;;9.93;;
9270;SDS011;4673;53.458;9.940;2024-02-21T11:59:18;9.67;;;9.63;;
9270;SDS011;4673;53.458;9.940;2024-02-21T12:01:44;10.27;;;10.20;;
9270;SDS011;4673;53.458;9.940;2024-02-21T12:04:09;9.90;;;9.83;;
9270;SDS011;4673;53.458;9.940;2024-02-21T12:06:35;10.13;;;10.13;;
9270;SDS011;4673;53.458;9.940;2024-02-21T12:09:01;9.70;;;9.70;;
9270;SDS011;4673;53.458;9.940;2024-02-21T12:11:27;9.17;;;9.17;;
9270;SDS011;4673;53.458;9.940;2024-02-21T12:14:02;10.17;;;10.17;;
9270;SDS011;4673;53.458;9.940;2024-02-21T12:16:33;10.77;;;10.67;;
9270;SDS011;4673;53.458;9.940;2024-02-21T12:18:59;11.80;;;11.70;;
9270;SDS011;4673;53.458;9.940;2024-02-21T12:21:26;12.03;;;11.93;;
9270;SDS011;4673;53.458;9.940;2024-02-21T12:23:56;11.43;;;11.33;;
9270;SDS011;4673;53.458;9.940;2024-02-21T12:26:22;12.30;;;12.20;;
9270;SDS011;4673;53.458;9.940;2024-02-21T12:28:48;11.27;;;11.27;;
9270;SDS011;4673;53.458;9.940;2024-02-21T12:31:13;11.53;;;11.43;;
9270;SDS011;4673;53.458;9.940;2024-02-21T12:33:41;12.43;;;12.33;;
9270;SDS011;4673;53.458;9.940;2024-02-21T12:36:07;12.77;;;12.67;;
9270;SDS011;4673;53.458;9.940;2024-02-21T12:38:34;13.10;;;13.00;;
9270;SDS011;4673;53.458;9.940;2024-02-21T12:41:00;12.13;;;12.03;;
9270;SDS011;4673;53.458;9.940;2024-02-21T12:43:26;12.70;;;12.60;;
9270;SDS011;4673;53.458;9.940;2024-02-21T12:45:52;12.77;;;12.67;;
9270;SDS011;4673;53.458;9.940;2024-02-21T12:48:17;11.40;;;11.30;;
9270;SDS011;4673;53.458;9.940;2024-02-21T12:50:50;11.87;;;11.77;;
9270;SDS011;4673;53.458;9.940;2024-02-21T12:53:21;12.20;;;12.10;;
9270;SDS011;4673;53.458;9.940;2024-02-21T12:55:48;11.10;;;11.00;;
9270;SDS011;4673;53.458;9.940;2024-02-21T12:58:13;11.20;;;11.10;;
9270;SDS011;4673;53.458;9.940;2024-02-21T13:00:39;11.00;;;10.93;;
9270;SDS011;4673;53.458;9.940;2024-02-21T13:03:05;11.70;;;11.60;;
9270;SDS011;4673;53.458;9.940;2024-02-21T13:05:31;11.20;;;11.10;;
9270;SDS011;4673;53.458;9.940;2024-02-21T13:07:57;11.67;;;11.57;;
9270;SDS011;4673;53.458;9.940;2024-02-21T13:10:23;10.70;;;10.70;;
9270;SDS011;4673;53.458;9.940;2024-02-21T13:12:49;10.20;;;10.20;;
9270;SDS011;4673;53.458;9.940;2024-02-21T13:15:15;10.97;;;10.87;;
9270;SDS011;4673;53.458;9.940;2024-02-21T13:17:43;9.70;;;9.60;;
9270;SDS011;4673;53.458;9.940;2024-02-21T13:20:09;9.73;;;9.73;;
9270;SDS011;4673;53.458;9.940;2024-02-21T13:22:36;9.30;;;9.30;;
9270;SDS011;4673;53.458;9.940;2024-02-21T13:25:01;9.03;;;9.03;;
9270;SDS011;4673;53.458;9.940;2024-02-21T13:27:28;9.43;;;9.43;;
9270;SDS011;4673;53.458;9.940;2024-02-21T13:29:53;8.53;;;8.53;;
9270;SDS011;4673;53.458;9.940;2024-02-21T13:32:19;9.70;;;9.60;;
9270;SDS011;4673;53.458;9.940;2024-02-21T13:34:45;8.57;;;8.57;;
9270;SDS011;4673;53.458;9.940;2024-02-21T13:37:10;8.63;;;8.63;;
9270;SDS011;4673;53.458;9.940;2024-02-21T13:39:36;9.43;;;9.33;;
9270;SDS011;4673;53.458;9.940;2024-02-21T13:42:02;8.00;;;8.00;;
9270;SDS011;4673;53.458;9.940;2024-02-21T13:44:30;8.30;;;8.30;;
9270;SDS011;4673;53.458;9.940;2024-02-21T13:46:59;9.57;;;9.47;;
9270;SDS011;4673;53.458;9.940;2024-02-21T13:49:25;9.10;;;9.00;;
9270;SDS011;4673;53.458;9.940;2024-02-21T13:51:51;8.63;;;8.63;;
9270;SDS011;4673;53.458;9.940;2024-02-21T13:54:17;9.23;;;9.23;;
9270;SDS011;4673;53.458;9.940;2024-02-21T13:56:44;10.40;;;10.33;;
9270;SDS011;4673;53.458;9.940;2024-02-21T13:59:11;8.63;;;8.63;;
9270;SDS011;4673;53.458;9.940;2024-02-21T14:01:38;8.73;;;8.73;;
9270;SDS011;4673;53.458;9.940;2024-02-21T14:04:04;8.53;;;8.53;;
9270;SDS011;4673;53.458;9.940;2024-02-21T14:06:30;9.23;;;9.23;;
9270;SDS011;4673;53.458;9.940;2024-02-21T14:08:56;9.40;;;9.40;;
9270;SDS011;4673;53.458;9.940;2024-02-21T14:11:22;7.93;;;7.93;;
9270;SDS011;4673;53.458;9.940;2024-02-21T14:13:48;7.60;;;7.60;;
9270;SDS011;4673;53.458;9.940;2024-02-21T14:16:13;7.03;;;7.03;;
9270;SDS011;4673;53.458;9.940;2024-02-21T14:18:39;7.40;;;7.40;;
9270;SDS011;4673;53.458;9.940;2024-02-21T14:21:08;7.57;;;7.57;;
9270;SDS011;4673;53.458;9.940;2024-02-21T14:23:38;6.90;;;6.90;;
9270;SDS011;4673;53.458;9.940;2024-02-21T14:26:04;7.47;;;7.47;;
9270;SDS011;4673;53.458;9.940;2024-02-21T14:28:31;6.70;;;6.70;;
9270;SDS011;4673;53.458;9.940;2024-02-21T14:30:58;6.93;;;6.93;;
9270;SDS011;4673;53.458;9.940;2024-02-21T14:33:25;6.90;;;6.90;;
9270;SDS011;4673;53.458;9.940;2024-02-21T14:35:52;6.43;;;6.43;;
9270;SDS011;4673;53.458;9.940;2024-02-21T14:38:18;7.30;;;7.30;;
9270;SDS011;4673;53.458;9.940;2024-02-21T14:40:46;8.13;;;8.13;;
9270;SDS011;4673;53.458;9.940;2024-02-21T14:43:12;8.07;;;8.07;;
9270;SDS011;4673;53.458;9.940;2024-02-21T14:45:37;7.40;;;7.40;;
9270;SDS011;4673;53.458;9.940;2024-02-21T14:48:04;7.57;;;7.57;;
9270;SDS011;4673;53.458;9.940;2024-02-21T14:50:30;6.73;;;6.73;;
9270;SDS011;4673;53.458;9.940;2024-02-21T14:52:55;6.93;;;6.93;;
9270;SDS011;4673;53.458;9.940;2024-02-21T14:55:21;6.77;;;6.77;;
9270;SDS011;4673;53.458;9.940;2024-02-21T14:57:48;7.20;;;7.20;;
9270;SDS011;4673;53.458;9.940;2024-02-21T15:00:13;6.03;;;6.03;;
9270;SDS011;4673;53.458;9.940;2024-02-21T15:02:39;7.00;;;7.00;;